sensor_id;sensor_type;location;lat;lon;timestamp;pressure;altitude;pressure_sealevel;temperature;humidity
4022;BME280;2025;48.260;16.432;2022-12-24T00:01:30;98688.72;;;6.43;100.00
4022;BME280;2025;48.260;16.432;2022-12-24T00:03:57;98699.19;;;6.53;100.00
4022;BME280;2025;48.260;16.432;2022-12-24T00:06:24;98703.63;;;6.66;100.00
4022;BME280;2025;48.260;16.432;2022-12-24T00:08:51;98714.09;;;6.72;100.00
4022;BME280;2025;48.260;16.432;2022-12-24T00:11:18;98720.25;;;6.88;100.00
4022;BME280;2025;48.260;16.432;2022-12-24T00:13:46;98711.59;;;6.90;100.00
4022;BME280;2025;48.260;16.432;2022-12-24T00:16:13;98718.63;;;6.96;100.00
4022;BME280;2025;48.260;16.432;2022-12-24T00:18:41;98717.69;;;6.91;100.00
4022;BME280;2025;48.260;16.432;2022-12-24T00:21:08;98711.69;;;6.98;100.00
4022;BME280;2025;48.260;16.432;2022-12-24T00:23:35;98705.84;;;7.43;100.00
4022;BME280;2025;48.260;16.432;2022-12-24T00:26:02;98709.44;;;7.72;100.00
4022;BME280;2025;48.260;16.432;2022-12-24T00:28:29;98722.50;;;7.86;100.00
4022;BME280;2025;48.260;16.432;2022-12-24T00:30:56;98722.53;;;7.91;100.00
4022;BME280;2025;48.260;16.432;2022-12-24T00:33:23;98725.16;;;8.06;100.00
4022;BME280;2025;48.260;16.432;2022-12-24T00:35:52;98732.22;;;8.92;100.00
4022;BME280;2025;48.260;16.432;2022-12-24T00:38:19;98723.44;;;9.33;100.00
4022;BME280;2025;48.260;16.432;2022-12-24T00:40:46;98724.19;;;9.69;100.00
4022;BME280;2025;48.260;16.432;2022-12-24T00:43:13;98729.28;;;9.94;100.00
4022;BME280;2025;48.260;16.432;2022-12-24T00:45:40;98748.38;;;10.15;100.00
4022;BME280;2025;48.260;16.432;2022-12-24T00:48:06;98784.09;;;10.26;100.00
4022;BME280;2025;48.260;16.432;2022-12-24T00:50:33;98819.84;;;10.41;100.00
4022;BME280;2025;48.260;16.432;2022-12-24T00:53:02;98852.88;;;10.62;100.00
4022;BME280;2025;48.260;16.432;2022-12-24T00:55:29;98886.91;;;10.68;100.00
4022;BME280;2025;48.260;16.432;2022-12-24T00:57:56;98894.72;;;10.74;100.00
4022;BME280;2025;48.260;16.432;2022-12-24T01:00:23;98913.03;;;10.80;100.00
4022;BME280;2025;48.260;16.432;2022-12-24T01:02:49;98956.63;;;10.97;100.00
4022;BME280;2025;48.260;16.432;2022-12-24T01:05:17;98963.53;;;11.10;100.00
4022;BME280;2025;48.260;16.432;2022-12-24T01:07:45;98971.41;;;11.10;100.00
4022;BME280;2025;48.260;16.432;2022-12-24T01:10:17;98973.97;;;11.19;100.00
4022;BME280;2025;48.260;16.432;2022-12-24T01:12:45;98970.47;;;11.18;100.00
4022;BME280;2025;48.260;16.432;2022-12-24T01:15:13;98971.25;;;11.31;100.00
4022;BME280;2025;48.260;16.432;2022-12-24T01:17:41;98961.63;;;11.33;100.00
4022;BME280;2025;48.260;16.432;2022-12-24T01:20:13;98972.03;;;11.45;100.00
4022;BME280;2025;48.260;16.432;2022-12-24T01:22:40;98959.81;;;11.43;100.00
4022;BME280;2025;48.260;16.432;2022-12-24T01:25:07;98971.97;;;11.51;100.00
4022;BME280;2025;48.260;16.432;2022-12-24T01:27:36;98966.69;;;11.59;100.00
4022;BME280;2025;48.260;16.432;2022-12-24T01:30:04;98956.06;;;11.73;100.00
4022;BME280;2025;48.260;16.432;2022-12-24T01:32:31;98959.59;;;11.70;100.00
4022;BME280;2025;48.260;16.432;2022-12-24T01:34:59;98973.56;;;11.71;100.00
4022;BME280;2025;48.260;16.432;2022-12-24T01:37:26;98994.63;;;11.65;100.00
4022;BME280;2025;48.260;16.432;2022-12-24T01:39:53;98993.78;;;11.61;100.00
4022;BME280;2025;48.260;16.432;2022-12-24T01:42:46;98987.69;;;11.56;100.00
4022;BME280;2025;48.260;16.432;2022-12-24T01:45:43;98971.16;;;11.43;100.00
4022;BME280;2025;48.260;16.432;2022-12-24T01:48:16;98981.56;;;11.55;100.00
4022;BME280;2025;48.260;16.432;2022-12-24T01:50:45;98978.97;;;11.52;100.00
4022;BME280;2025;48.260;16.432;2022-12-24T01:53:14;98984.25;;;11.48;100.00
4022;BME280;2025;48.260;16.432;2022-12-24T01:55:42;99005.13;;;11.65;100.00
4022;BME280;2025;48.260;16.432;2022-12-24T01:58:15;99003.28;;;11.76;100.00
4022;BME280;2025;48.260;16.432;2022-12-24T02:00:43;99006.72;;;11.85;100.00
4022;BME280;2025;48.260;16.432;2022-12-24T02:03:11;99008.44;;;11.91;100.00
4022;BME280;2025;48.260;16.432;2022-12-24T02:05:44;99012.69;;;12.04;100.00
4022;BME280;2025;48.260;16.432;2022-12-24T02:08:13;99003.09;;;11.99;100.00
4022;BME280;2025;48.260;16.432;2022-12-24T02:10:40;98995.28;;;11.93;100.00
4022;BME280;2025;48.260;16.432;2022-12-24T02:13:07;98995.25;;;11.97;100.00
4022;BME280;2025;48.260;16.432;2022-12-24T02:15:45;98984.00;;;11.83;100.00
4022;BME280;2025;48.260;16.432;2022-12-24T02:18:21;98983.84;;;11.98;100.00
4022;BME280;2025;48.260;16.432;2022-12-24T02:21:14;98982.03;;;12.06;100.00
4022;BME280;2025;48.260;16.432;2022-12-24T02:26:52;98992.44;;;12.18;100.00
4022;BME280;2025;48.260;16.432;2022-12-24T02:29:46;98982.84;;;12.16;100.00
4022;BME280;2025;48.260;16.432;2022-12-24T02:32:21;98992.44;;;12.18;100.00
4022;BME280;2025;48.260;16.432;2022-12-24T02:34:53;98978.41;;;12.21;100.00
4022;BME280;2025;48.260;16.432;2022-12-24T02:37:26;98983.72;;;12.15;100.00
4022;BME280;2025;48.260;16.432;2022-12-24T02:39:58;98983.81;;;12.04;100.00
4022;BME280;2025;48.260;16.432;2022-12-24T02:42:30;98983.75;;;12.10;100.00
4022;BME280;2025;48.260;16.432;2022-12-24T02:45:05;98978.53;;;12.07;100.00
4022;BME280;2025;48.260;16.432;2022-12-24T02:47:32;98970.72;;;12.00;100.00
4022;BME280;2025;48.260;16.432;2022-12-24T02:50:01;98975.13;;;11.96;100.00
4022;BME280;2025;48.260;16.432;2022-12-24T02:52:30;98978.78;;;11.77;100.00
4022;BME280;2025;48.260;16.432;2022-12-24T02:55:00;98999.72;;;11.87;100.00
4022;BME280;2025;48.260;16.432;2022-12-24T02:57:35;98997.16;;;11.80;100.00
4022;BME280;2025;48.260;16.432;2022-12-24T03:00:07;99008.47;;;11.86;100.00
4022;BME280;2025;48.260;16.432;2022-12-24T03:02:51;99005.81;;;11.89;100.00
4022;BME280;2025;48.260;16.432;2022-12-24T03:05:28;99005.75;;;11.96;100.00
4022;BME280;2025;48.260;16.432;2022-12-24T03:08:03;99025.91;;;11.92;100.00
4022;BME280;2025;48.260;16.432;2022-12-24T03:10:36;99009.28;;;11.92;100.00
4022;BME280;2025;48.260;16.432;2022-12-24T03:13:07;99029.44;;;11.88;100.00
4022;BME280;2025;48.260;16.432;2022-12-24T03:15:38;99028.34;;;12.18;100.00
4022;BME280;2025;48.260;16.432;2022-12-24T03:18:07;99025.78;;;12.07;100.00
4022;BME280;2025;48.260;16.432;2022-12-24T03:20:38;99032.88;;;11.96;100.00
4022;BME280;2025;48.260;16.432;2022-12-24T03:23:06;99038.88;;;12.10;100.00
4022;BME280;2025;48.260;16.432;2022-12-24T03:25:34;99044.91;;;12.25;100.00
4022;BME280;2025;48.260;16.432;2022-12-24T03:28:05;99051.75;;;12.41;100.00
4022;BME280;2025;48.260;16.432;2022-12-24T03:30:32;99063.03;;;12.52;100.00
4022;BME280;2025;48.260;16.432;2022-12-24T03:33:01;99063.78;;;12.63;100.00
4022;BME280;2025;48.260;16.432;2022-12-24T03:35:28;99080.44;;;12.62;100.00
4022;BME280;2025;48.260;16.432;2022-12-24T03:37:55;99077.94;;;12.50;100.00
4022;BME280;2025;48.260;16.432;2022-12-24T03:40:22;99072.97;;;12.19;100.00
4022;BME280;2025;48.260;16.432;2022-12-24T03:42:49;99089.81;;;11.91;100.00
4022;BME280;2025;48.260;16.432;2022-12-24T03:45:16;99085.31;;;12.04;100.00
4022;BME280;2025;48.260;16.432;2022-12-24T03:47:43;99093.06;;;12.25;100.00
4022;BME280;2025;48.260;16.432;2022-12-24T03:50:12;99082.50;;;12.30;100.00
4022;BME280;2025;48.260;16.432;2022-12-24T03:52:39;99091.28;;;12.29;100.00
4022;BME280;2025;48.260;16.432;2022-12-24T03:55:07;99090.44;;;12.24;100.00
4022;BME280;2025;48.260;16.432;2022-12-24T03:57:34;99079.88;;;12.30;100.00
4022;BME280;2025;48.260;16.432;2022-12-24T04:00:01;99090.25;;;12.45;100.00
4022;BME280;2025;48.260;16.432;2022-12-24T04:02:28;99093.84;;;12.35;100.00
4022;BME280;2025;48.260;16.432;2022-12-24T04:04:56;99105.38;;;12.17;100.00
4022;BME280;2025;48.260;16.432;2022-12-24T04:07:25;99105.19;;;12.40;100.00
4022;BME280;2025;48.260;16.432;2022-12-24T04:09:52;99111.44;;;12.27;100.00
4022;BME280;2025;48.260;16.432;2022-12-24T04:12:18;99112.38;;;12.13;100.00
4022;BME280;2025;48.260;16.432;2022-12-24T04:14:45;99126.13;;;12.49;100.00
4022;BME280;2025;48.260;16.432;2022-12-24T04:17:12;99114.78;;;12.44;100.00
4022;BME280;2025;48.260;16.432;2022-12-24T04:19:39;99118.97;;;12.65;100.00
4022;BME280;2025;48.260;16.432;2022-12-24T04:22:06;99118.88;;;12.74;100.00
4022;BME280;2025;48.260;16.432;2022-12-24T04:24:35;99141.66;;;12.72;100.00
4022;BME280;2025;48.260;16.432;2022-12-24T04:27:02;99134.84;;;12.51;100.00
4022;BME280;2025;48.260;16.432;2022-12-24T04:29:29;99148.03;;;12.48;100.00
4022;BME280;2025;48.260;16.432;2022-12-24T04:31:56;99136.94;;;12.14;100.00
4022;BME280;2025;48.260;16.432;2022-12-24T04:34:23;99139.63;;;11.97;100.00
4022;BME280;2025;48.260;16.432;2022-12-24T04:36:50;99145.97;;;11.56;100.00
4022;BME280;2025;48.260;16.432;2022-12-24T04:39:17;99136.38;;;11.52;100.00
4022;BME280;2025;48.260;16.432;2022-12-24T04:41:45;99142.47;;;11.56;100.00
4022;BME280;2025;48.260;16.432;2022-12-24T04:44:12;99148.66;;;11.47;100.00
4022;BME280;2025;48.260;16.432;2022-12-24T04:46:39;99140.00;;;11.29;100.00
4022;BME280;2025;48.260;16.432;2022-12-24T04:49:07;99146.13;;;11.28;100.00
4022;BME280;2025;48.260;16.432;2022-12-24T04:51:34;99146.94;;;11.39;100.00
4022;BME280;2025;48.260;16.432;2022-12-24T04:54:01;99147.78;;;11.44;100.00
4022;BME280;2025;48.260;16.432;2022-12-24T04:56:30;99156.59;;;11.29;100.00
4022;BME280;2025;48.260;16.432;2022-12-24T04:59:00;99161.91;;;11.11;100.00
4022;BME280;2025;48.260;16.432;2022-12-24T05:01:29;99174.97;;;11.21;100.00
4022;BME280;2025;48.260;16.432;2022-12-24T05:03:57;99175.84;;;11.25;100.00
4022;BME280;2025;48.260;16.432;2022-12-24T05:06:27;99180.19;;;11.28;100.00
4022;BME280;2025;48.260;16.432;2022-12-24T05:08:56;99177.63;;;11.14;100.00
4022;BME280;2025;48.260;16.432;2022-12-24T05:11:23;99195.16;;;10.97;100.00
4022;BME280;2025;48.260;16.432;2022-12-24T05:13:50;99187.28;;;10.93;100.00
4022;BME280;2025;48.260;16.432;2022-12-24T05:16:20;99190.75;;;11.05;100.00
4022;BME280;2025;48.260;16.432;2022-12-24T05:18:49;99192.50;;;11.01;100.00
4022;BME280;2025;48.260;16.432;2022-12-24T05:21:17;99209.16;;;10.68;100.00
4022;BME280;2025;48.260;16.432;2022-12-24T05:23:45;99202.16;;;10.88;100.00
4022;BME280;2025;48.260;16.432;2022-12-24T05:26:29;99210.00;;;10.93;100.00
4022;BME280;2025;48.260;16.432;2022-12-24T05:28:58;99207.25;;;11.42;100.00
4022;BME280;2025;48.260;16.432;2022-12-24T05:31:28;99201.91;;;11.68;100.00
4022;BME280;2025;48.260;16.432;2022-12-24T05:33:55;99201.88;;;11.80;100.00
4022;BME280;2025;48.260;16.432;2022-12-24T05:36:22;99212.31;;;11.92;100.00
4022;BME280;2025;48.260;16.432;2022-12-24T05:38:50;99215.81;;;11.93;100.00
4022;BME280;2025;48.260;16.432;2022-12-24T05:41:17;99207.00;;;12.01;100.00
4022;BME280;2025;48.260;16.432;2022-12-24T05:43:45;99219.19;;;12.11;100.00
4022;BME280;2025;48.260;16.432;2022-12-24T05:46:13;99223.56;;;12.11;100.00
4022;BME280;2025;48.260;16.432;2022-12-24T05:48:42;99218.38;;;12.03;100.00
4022;BME280;2025;48.260;16.432;2022-12-24T05:51:10;99229.75;;;12.04;100.00
4022;BME280;2025;48.260;16.432;2022-12-24T05:53:38;99225.38;;;12.03;100.00
4022;BME280;2025;48.260;16.432;2022-12-24T05:56:07;99235.91;;;11.98;100.00
4022;BME280;2025;48.260;16.432;2022-12-24T05:58:35;99224.41;;;12.20;100.00
4022;BME280;2025;48.260;16.432;2022-12-24T06:01:03;99241.97;;;12.09;100.00
4022;BME280;2025;48.260;16.432;2022-12-24T06:03:30;99219.28;;;11.98;100.00
4022;BME280;2025;48.260;16.432;2022-12-24T06:06:00;99218.50;;;11.77;100.00
4022;BME280;2025;48.260;16.432;2022-12-24T06:08:28;99249.94;;;11.91;100.00
4022;BME280;2025;48.260;16.432;2022-12-24T06:10:55;99253.41;;;11.98;100.00
4022;BME280;2025;48.260;16.432;2022-12-24T06:13:23;99263.94;;;11.93;100.00
4022;BME280;2025;48.260;16.432;2022-12-24T06:15:50;99263.00;;;12.06;100.00
4022;BME280;2025;48.260;16.432;2022-12-24T06:18:17;99276.00;;;12.31;100.00
4022;BME280;2025;48.260;16.432;2022-12-24T06:20:44;99274.38;;;12.05;100.00
4022;BME280;2025;48.260;16.432;2022-12-24T06:23:12;99303.22;;;12.17;100.00
4022;BME280;2025;48.260;16.432;2022-12-24T06:25:39;99293.59;;;12.16;100.00
4022;BME280;2025;48.260;16.432;2022-12-24T06:28:06;99289.22;;;12.09;100.00
4022;BME280;2025;48.260;16.432;2022-12-24T06:30:33;99294.53;;;12.02;100.00
4022;BME280;2025;48.260;16.432;2022-12-24T06:33:00;99300.66;;;11.96;100.00
4022;BME280;2025;48.260;16.432;2022-12-24T06:35:27;99299.78;;;11.99;100.00
4022;BME280;2025;48.260;16.432;2022-12-24T06:37:54;99289.31;;;11.89;100.00
4022;BME280;2025;48.260;16.432;2022-12-24T06:40:22;99293.66;;;12.00;100.00
4022;BME280;2025;48.260;16.432;2022-12-24T06:42:49;99288.41;;;12.00;100.00
4022;BME280;2025;48.260;16.432;2022-12-24T06:45:16;99297.19;;;11.94;100.00
4022;BME280;2025;48.260;16.432;2022-12-24T06:47:43;99296.34;;;11.86;100.00
4022;BME280;2025;48.260;16.432;2022-12-24T06:50:10;99302.50;;;11.79;100.00
4022;BME280;2025;48.260;16.432;2022-12-24T06:52:37;99306.84;;;11.84;100.00
4022;BME280;2025;48.260;16.432;2022-12-24T06:55:05;99300.69;;;11.90;100.00
4022;BME280;2025;48.260;16.432;2022-12-24T06:57:34;99315.59;;;11.86;100.00
4022;BME280;2025;48.260;16.432;2022-12-24T07:00:01;99334.84;;;11.70;100.00
4022;BME280;2025;48.260;16.432;2022-12-24T07:02:28;99319.09;;;11.85;100.00
4022;BME280;2025;48.260;16.432;2022-12-24T07:04:55;99318.25;;;11.80;100.00
4022;BME280;2025;48.260;16.432;2022-12-24T07:07:22;99329.59;;;11.75;100.00
4022;BME280;2025;48.260;16.432;2022-12-24T07:09:49;99337.47;;;11.84;100.00
4022;BME280;2025;48.260;16.432;2022-12-24T07:12:16;99342.75;;;11.78;100.00
4022;BME280;2025;48.260;16.432;2022-12-24T07:14:44;99351.47;;;11.72;100.00
4022;BME280;2025;48.260;16.432;2022-12-24T07:17:11;99363.72;;;11.87;100.00
4022;BME280;2025;48.260;16.432;2022-12-24T07:19:38;99352.31;;;11.93;100.00
4022;BME280;2025;48.260;16.432;2022-12-24T07:22:05;99347.91;;;12.02;100.00
4022;BME280;2025;48.260;16.432;2022-12-24T07:24:32;99358.41;;;12.01;100.00
4022;BME280;2025;48.260;16.432;2022-12-24T07:26:59;99367.16;;;12.04;100.00
4022;BME280;2025;48.260;16.432;2022-12-24T07:29:26;99355.75;;;12.19;100.00
4022;BME280;2025;48.260;16.432;2022-12-24T07:31:54;99355.78;;;12.14;100.00
4022;BME280;2025;48.260;16.432;2022-12-24T07:34:21;99361.03;;;12.07;100.00
4022;BME280;2025;48.260;16.432;2022-12-24T07:36:48;99374.22;;;11.90;100.00
4022;BME280;2025;48.260;16.432;2022-12-24T07:39:15;99375.06;;;11.95;100.00
4022;BME280;2025;48.260;16.432;2022-12-24T07:41:42;99366.31;;;11.96;100.00
4022;BME280;2025;48.260;16.432;2022-12-24T07:44:11;99375.06;;;11.97;100.00
4022;BME280;2025;48.260;16.432;2022-12-24T07:46:38;99377.66;;;12.07;100.00
4022;BME280;2025;48.260;16.432;2022-12-24T07:49:07;99410.06;;;12.03;100.00
4022;BME280;2025;48.260;16.432;2022-12-24T07:51:34;99414.41;;;12.07;100.00
4022;BME280;2025;48.260;16.432;2022-12-24T07:54:01;99417.03;;;12.12;100.00
4022;BME280;2025;48.260;16.432;2022-12-24T07:56:29;99407.44;;;12.00;100.00
4022;BME280;2025;48.260;16.432;2022-12-24T07:58:56;99416.22;;;11.90;100.00
4022;BME280;2025;48.260;16.432;2022-12-24T08:01:23;99422.34;;;11.92;100.00
4022;BME280;2025;48.260;16.432;2022-12-24T08:03:50;99424.09;;;11.88;100.00
4022;BME280;2025;48.260;16.432;2022-12-24T08:06:20;99419.69;;;11.97;100.00
4022;BME280;2025;48.260;16.432;2022-12-24T08:08:47;99422.34;;;11.91;100.00
4022;BME280;2025;48.260;16.432;2022-12-24T08:11:15;99424.94;;;11.95;100.00
4022;BME280;2025;48.260;16.432;2022-12-24T08:13:42;99428.44;;;12.03;100.00
4022;BME280;2025;48.260;16.432;2022-12-24T08:16:09;99437.19;;;12.01;100.00
4022;BME280;2025;48.260;16.432;2022-12-24T08:18:36;99432.78;;;12.12;100.00
4022;BME280;2025;48.260;16.432;2022-12-24T08:21:06;99434.50;;;12.33;100.00
4022;BME280;2025;48.260;16.432;2022-12-24T08:23:37;99450.25;;;12.37;100.00
4022;BME280;2025;48.260;16.432;2022-12-24T08:26:06;99445.03;;;12.30;100.00
4022;BME280;2025;48.260;16.432;2022-12-24T08:28:33;99448.53;;;12.29;100.00
4022;BME280;2025;48.260;16.432;2022-12-24T08:31:05;99469.56;;;12.26;100.00
4022;BME280;2025;48.260;16.432;2022-12-24T08:33:32;99476.53;;;12.37;100.00
4022;BME280;2025;48.260;16.432;2022-12-24T08:36:00;99473.06;;;12.15;100.00
4022;BME280;2025;48.260;16.432;2022-12-24T08:38:27;99476.56;;;12.11;100.00
4022;BME280;2025;48.260;16.432;2022-12-24T08:40:55;99480.94;;;12.00;100.00
4022;BME280;2025;48.260;16.432;2022-12-24T08:43:25;99483.56;;;12.08;100.00
4022;BME280;2025;48.260;16.432;2022-12-24T08:45:52;99479.22;;;12.14;100.00
4022;BME280;2025;48.260;16.432;2022-12-24T08:48:19;99498.47;;;12.21;100.00
4022;BME280;2025;48.260;16.432;2022-12-24T08:50:46;99487.03;;;12.37;100.00
4022;BME280;2025;48.260;16.432;2022-12-24T08:53:13;99496.66;;;12.37;100.00
4022;BME280;2025;48.260;16.432;2022-12-24T08:55:40;99505.41;;;12.39;100.00
4022;BME280;2025;48.260;16.432;2022-12-24T08:58:08;99521.19;;;12.37;100.00
4022;BME280;2025;48.260;16.432;2022-12-24T09:00:35;99515.03;;;12.49;100.00
4022;BME280;2025;48.260;16.432;2022-12-24T09:03:02;99508.91;;;12.44;100.00
4022;BME280;2025;48.260;16.432;2022-12-24T09:05:30;99514.13;;;12.59;100.00
4022;BME280;2025;48.260;16.432;2022-12-24T09:08:00;99523.69;;;12.74;100.00
4022;BME280;2025;48.260;16.432;2022-12-24T09:10:27;99528.06;;;12.81;100.00
4022;BME280;2025;48.260;16.432;2022-12-24T09:12:54;99531.53;;;12.86;100.00
4022;BME280;2025;48.260;16.432;2022-12-24T09:15:22;99527.16;;;12.82;100.00
4022;BME280;2025;48.260;16.432;2022-12-24T09:17:49;99540.31;;;12.80;100.00
4022;BME280;2025;48.260;16.432;2022-12-24T09:20:16;99546.44;;;12.87;100.00
4022;BME280;2025;48.260;16.432;2022-12-24T09:22:43;99556.03;;;12.94;100.00
4022;BME280;2025;48.260;16.432;2022-12-24T09:25:10;99549.84;;;13.04;100.00
4022;BME280;2025;48.260;16.432;2022-12-24T09:27:37;99548.97;;;13.08;100.00
4022;BME280;2025;48.260;16.432;2022-12-24T09:30:06;99562.06;;;13.16;100.00
4022;BME280;2025;48.260;16.432;2022-12-24T09:32:34;99559.44;;;13.24;100.00
4022;BME280;2025;48.260;16.432;2022-12-24T09:35:01;99569.84;;;13.46;100.00
4022;BME280;2025;48.260;16.432;2022-12-24T09:37:28;99560.19;;;13.44;100.00
4022;BME280;2025;48.260;16.432;2022-12-24T09:39:55;99567.19;;;13.49;100.00
4022;BME280;2025;48.260;16.432;2022-12-24T09:42:30;99551.50;;;13.33;100.00
4022;BME280;2025;48.260;16.432;2022-12-24T09:45:05;99568.03;;;13.52;100.00
4022;BME280;2025;48.260;16.432;2022-12-24T09:47:40;99565.22;;;13.80;100.00
4022;BME280;2025;48.260;16.432;2022-12-24T09:50:23;99579.34;;;13.67;100.00
4022;BME280;2025;48.260;16.432;2022-12-24T09:52:52;99585.22;;;14.07;100.00
4022;BME280;2025;48.260;16.432;2022-12-24T09:55:26;99579.97;;;14.06;100.00
4022;BME280;2025;48.260;16.432;2022-12-24T09:57:55;99587.88;;;14.07;100.00
4022;BME280;2025;48.260;16.432;2022-12-24T10:00:28;99600.09;;;14.16;100.00
4022;BME280;2025;48.260;16.432;2022-12-24T10:03:13;99601.84;;;14.16;100.00
4022;BME280;2025;48.260;16.432;2022-12-24T10:05:45;99609.75;;;14.14;100.00
4022;BME280;2025;48.260;16.432;2022-12-24T10:08:30;99616.94;;;13.95;100.00
4022;BME280;2025;48.260;16.432;2022-12-24T10:11:13;99616.56;;;14.41;100.00
4022;BME280;2025;48.260;16.432;2022-12-24T10:13:58;99597.34;;;14.27;100.00
4022;BME280;2025;48.260;16.432;2022-12-24T10:16:40;99614.94;;;14.26;98.98
4022;BME280;2025;48.260;16.432;2022-12-24T10:19:16;99613.28;;;14.11;98.72
4022;BME280;2025;48.260;16.432;2022-12-24T10:22:02;99608.19;;;13.92;99.89
4022;BME280;2025;48.260;16.432;2022-12-24T10:24:42;99624.09;;;13.70;100.00
4022;BME280;2025;48.260;16.432;2022-12-24T10:27:16;99631.16;;;13.64;100.00
4022;BME280;2025;48.260;16.432;2022-12-24T10:29:48;99639.13;;;13.47;100.00
4022;BME280;2025;48.260;16.432;2022-12-24T10:32:21;99620.72;;;13.45;100.00
4022;BME280;2025;48.260;16.432;2022-12-24T10:34:58;99633.91;;;13.44;100.00
4022;BME280;2025;48.260;16.432;2022-12-24T10:37:29;99640.97;;;13.34;100.00
4022;BME280;2025;48.260;16.432;2022-12-24T10:39:59;99630.41;;;13.39;100.00
4022;BME280;2025;48.260;16.432;2022-12-24T10:42:35;99635.66;;;13.39;100.00
4022;BME280;2025;48.260;16.432;2022-12-24T10:45:12;99639.19;;;13.36;100.00
4022;BME280;2025;48.260;16.432;2022-12-24T10:47:41;99647.03;;;13.48;100.00
4022;BME280;2025;48.260;16.432;2022-12-24T10:50:17;99640.84;;;13.56;100.00
4022;BME280;2025;48.260;16.432;2022-12-24T10:52:50;99633.03;;;13.42;100.00
4022;BME280;2025;48.260;16.432;2022-12-24T10:55:24;99644.34;;;13.61;100.00
4022;BME280;2025;48.260;16.432;2022-12-24T10:58:17;99639.50;;;14.28;98.97
4022;BME280;2025;48.260;16.432;2022-12-24T11:00:49;99642.38;;;13.96;97.99
4022;BME280;2025;48.260;16.432;2022-12-24T11:03:22;99639.41;;;14.39;95.56
4022;BME280;2025;48.260;16.432;2022-12-24T11:06:08;99632.69;;;14.98;91.19
4022;BME280;2025;48.260;16.432;2022-12-24T11:08:36;99646.06;;;14.83;88.62
4022;BME280;2025;48.260;16.432;2022-12-24T11:11:08;99642.19;;;15.14;88.45
4022;BME280;2025;48.260;16.432;2022-12-24T11:13:52;99633.91;;;15.43;86.36
4022;BME280;2025;48.260;16.432;2022-12-24T11:16:26;99634.94;;;15.31;84.99
4022;BME280;2025;48.260;16.432;2022-12-24T11:18:59;99640.97;;;15.41;83.95
4022;BME280;2025;48.260;16.432;2022-12-24T11:21:31;99627.69;;;15.49;83.84
4022;BME280;2025;48.260;16.432;2022-12-24T11:24:02;99620.66;;;15.48;83.12
4022;BME280;2025;48.260;16.432;2022-12-24T11:26:33;99627.06;;;15.27;85.07
4022;BME280;2025;48.260;16.432;2022-12-24T11:29:11;99621.28;;;15.71;81.96
4022;BME280;2025;48.260;16.432;2022-12-24T11:31:42;99619.75;;;16.12;80.22
4022;BME280;2025;48.260;16.432;2022-12-24T11:34:22;99614.47;;;16.12;78.45
4022;BME280;2025;48.260;16.432;2022-12-24T11:36:53;99615.97;;;15.73;77.55
4022;BME280;2025;48.260;16.432;2022-12-24T11:39:24;99621.59;;;16.07;78.36
4022;BME280;2025;48.260;16.432;2022-12-24T11:41:52;99619.97;;;15.99;78.84
4022;BME280;2025;48.260;16.432;2022-12-24T11:44:24;99619.31;;;15.85;78.47
4022;BME280;2025;48.260;16.432;2022-12-24T11:46:54;99622.47;;;16.09;74.86
4022;BME280;2025;48.260;16.432;2022-12-24T11:49:25;99629.47;;;16.62;75.05
4022;BME280;2025;48.260;16.432;2022-12-24T11:52:15;99613.44;;;16.22;75.90
4022;BME280;2025;48.260;16.432;2022-12-24T11:54:50;99614.31;;;15.65;77.60
4022;BME280;2025;48.260;16.432;2022-12-24T11:57:36;99613.63;;;14.73;83.71
4022;BME280;2025;48.260;16.432;2022-12-24T12:00:09;99635.97;;;14.31;88.54
4022;BME280;2025;48.260;16.432;2022-12-24T12:02:38;99631.84;;;13.98;91.33
4022;BME280;2025;48.260;16.432;2022-12-24T12:05:10;99636.22;;;13.97;92.59
4022;BME280;2025;48.260;16.432;2022-12-24T12:07:41;99646.81;;;13.85;90.08
4022;BME280;2025;48.260;16.432;2022-12-24T12:10:17;99645.63;;;14.32;87.43
4022;BME280;2025;48.260;16.432;2022-12-24T12:12:46;99642.34;;;14.04;92.14
4022;BME280;2025;48.260;16.432;2022-12-24T12:15:18;99635.41;;;13.83;93.33
4022;BME280;2025;48.260;16.432;2022-12-24T12:17:50;99624.88;;;13.89;93.72
4022;BME280;2025;48.260;16.432;2022-12-24T12:20:22;99623.88;;;14.04;93.58
4022;BME280;2025;48.260;16.432;2022-12-24T12:22:54;99628.09;;;14.28;90.91
4022;BME280;2025;48.260;16.432;2022-12-24T12:25:31;99626.56;;;13.99;92.43
4022;BME280;2025;48.260;16.432;2022-12-24T12:28:17;99660.88;;;13.87;92.05
4022;BME280;2025;48.260;16.432;2022-12-24T12:30:53;99656.63;;;13.62;96.34
4022;BME280;2025;48.260;16.432;2022-12-24T12:33:30;99644.44;;;13.41;99.32
4022;BME280;2025;48.260;16.432;2022-12-24T12:36:00;99647.09;;;13.33;100.00
4022;BME280;2025;48.260;16.432;2022-12-24T12:38:31;99648.88;;;13.28;100.00
4022;BME280;2025;48.260;16.432;2022-12-24T12:41:11;99656.81;;;13.08;100.00
4022;BME280;2025;48.260;16.432;2022-12-24T12:46:53;99664.69;;;13.22;100.00
4022;BME280;2025;48.260;16.432;2022-12-24T12:49:32;99678.34;;;14.02;100.00
4022;BME280;2025;48.260;16.432;2022-12-24T12:52:12;99688.84;;;15.12;89.04
4022;BME280;2025;48.260;16.432;2022-12-24T12:54:54;99695.34;;;16.25;81.17
4022;BME280;2025;48.260;16.432;2022-12-24T12:57:30;99695.50;;;16.71;77.09
4022;BME280;2025;48.260;16.432;2022-12-24T13:00:01;99693.28;;;16.42;75.96
4022;BME280;2025;48.260;16.432;2022-12-24T13:02:44;99702.03;;;16.47;77.80
4022;BME280;2025;48.260;16.432;2022-12-24T13:05:32;99715.78;;;16.71;75.60
4022;BME280;2025;48.260;16.432;2022-12-24T13:08:16;99715.81;;;16.11;78.56
4022;BME280;2025;48.260;16.432;2022-12-24T13:11:13;99706.78;;;15.59;82.78
4022;BME280;2025;48.260;16.432;2022-12-24T13:14:01;99730.59;;;14.67;92.13
4022;BME280;2025;48.260;16.432;2022-12-24T13:17:03;99727.00;;;14.77;93.48
4022;BME280;2025;48.260;16.432;2022-12-24T13:19:50;99741.16;;;15.53;87.21
4022;BME280;2025;48.260;16.432;2022-12-24T13:22:20;99746.25;;;15.75;86.41
4022;BME280;2025;48.260;16.432;2022-12-24T13:24:50;99753.91;;;15.16;90.59
4022;BME280;2025;48.260;16.432;2022-12-24T13:27:22;99756.09;;;15.59;87.50